createdAt,value
2022-11-18T00:00:14.261Z,81.86
2022-11-18T00:01:14.211Z,81.87
2022-11-18T00:02:14.281Z,81.95
2022-11-18T00:03:14.202Z,81.94
2022-11-18T00:04:14.181Z,81.96
2022-11-18T00:05:14.150Z,81.81
2022-11-18T00:06:14.160Z,81.92
2022-11-18T00:07:14.216Z,81.74
2022-11-18T00:08:14.126Z,81.69
2022-11-18T00:09:14.564Z,81.80
2022-11-18T00:10:14.103Z,81.85
2022-11-18T00:11:14.068Z,81.97
2022-11-18T00:12:14.098Z,82.14
2022-11-18T00:13:14.050Z,82.24
2022-11-18T00:14:14.046Z,82.34
2022-11-18T00:15:14.016Z,82.55
2022-11-18T00:16:14.022Z,82.50
2022-11-18T00:17:13.994Z,82.82
2022-11-18T00:18:14.006Z,82.32
2022-11-18T00:19:14.013Z,82.22
2022-11-18T00:20:13.975Z,82.06
2022-11-18T00:21:13.970Z,82.30
2022-11-18T00:22:13.964Z,82.31
2022-11-18T00:23:13.908Z,82.52
2022-11-18T00:24:13.924Z,82.51
2022-11-18T00:25:13.931Z,82.63
2022-11-18T00:26:13.921Z,82.67
2022-11-18T00:27:13.872Z,82.95
2022-11-18T00:28:13.873Z,82.70
2022-11-18T00:29:13.890Z,82.66
2022-11-18T00:30:13.847Z,82.70
2022-11-18T00:31:13.809Z,82.70
2022-11-18T00:32:13.819Z,82.97
2022-11-18T00:33:13.789Z,83.12
2022-11-18T00:34:13.792Z,82.90
2022-11-18T00:35:13.760Z,83.07
2022-11-18T00:36:13.770Z,82.82
2022-11-18T00:37:13.739Z,83.04
2022-11-18T00:38:13.736Z,83.15
2022-11-18T00:39:13.704Z,83.23
2022-11-18T00:40:13.722Z,83.25
2022-11-18T00:41:13.682Z,83.26
2022-11-18T00:42:13.686Z,83.16
2022-11-18T00:43:13.653Z,83.16
2022-11-18T00:44:13.657Z,82.98
2022-11-18T00:45:13.634Z,83.20
2022-11-18T00:46:13.655Z,82.89
2022-11-18T00:47:13.612Z,82.74
2022-11-18T00:48:13.611Z,82.55
2022-11-18T00:49:13.573Z,82.63
2022-11-18T00:50:13.589Z,82.71
2022-11-18T00:51:13.545Z,82.55
2022-11-18T00:52:13.558Z,82.64
2022-11-18T00:53:13.518Z,82.77
2022-11-18T00:54:13.530Z,82.90
2022-11-18T00:55:13.512Z,82.91
2022-11-18T00:56:13.506Z,82.95
2022-11-18T00:57:13.474Z,83.12
2022-11-18T00:58:13.479Z,83.18
2022-11-18T00:59:13.445Z,83.32
2022-11-18T01:00:13.452Z,83.50
2022-11-18T01:01:13.465Z,82.74
2022-11-18T01:02:13.439Z,82.70
2022-11-18T01:03:13.388Z,82.59
2022-11-18T01:04:13.400Z,82.72
2022-11-18T01:05:13.397Z,82.90
2022-11-18T01:06:13.373Z,82.94
2022-11-18T01:07:13.374Z,83.07
2022-11-18T01:08:13.350Z,82.94
2022-11-18T01:09:13.308Z,82.77
2022-11-18T01:10:13.332Z,82.76
2022-11-18T01:11:13.283Z,82.86
2022-11-18T01:12:13.301Z,82.90
2022-11-18T01:13:13.258Z,82.87
2022-11-18T01:14:13.267Z,82.80
2022-11-18T01:15:13.231Z,82.94
2022-11-18T01:16:13.252Z,83.03
2022-11-18T01:17:13.216Z,83.02
2022-11-18T01:18:13.216Z,82.86
2022-11-18T01:19:13.179Z,82.92
2022-11-18T01:20:13.191Z,83.00
2022-11-18T01:21:13.163Z,83.09
2022-11-18T01:22:13.173Z,83.21
2022-11-18T01:23:13.140Z,83.36
2022-11-18T01:24:13.156Z,83.36
2022-11-18T01:25:13.121Z,83.38
2022-11-18T01:26:13.112Z,83.33
2022-11-18T01:27:13.090Z,83.21
2022-11-18T01:28:13.098Z,83.29
2022-11-18T01:29:13.090Z,83.14
2022-11-18T01:30:13.070Z,83.08
2022-11-18T01:31:13.040Z,83.13
2022-11-18T01:32:28.281Z,83.34
2022-11-18T01:33:13.004Z,83.38
2022-11-18T01:34:13.007Z,83.47
2022-11-18T01:35:12.973Z,83.67
2022-11-18T01:36:12.990Z,83.78
2022-11-18T01:37:12.958Z,83.80
2022-11-18T01:38:12.973Z,83.79
2022-11-18T01:39:12.930Z,83.84
2022-11-18T01:40:12.933Z,83.91
2022-11-18T01:41:12.894Z,83.91
2022-11-18T01:42:12.912Z,83.83
2022-11-18T01:43:12.866Z,83.58
2022-11-18T01:44:12.878Z,82.91
2022-11-18T01:45:12.842Z,82.67
2022-11-18T01:46:12.855Z,82.59
2022-11-18T01:47:12.823Z,82.90
2022-11-18T01:48:12.829Z,82.68
2022-11-18T01:49:12.798Z,82.59
2022-11-18T01:50:12.802Z,82.47
2022-11-18T01:51:12.764Z,82.50
2022-11-18T01:52:12.803Z,82.58
2022-11-18T01:53:12.757Z,82.50
2022-11-18T01:54:12.757Z,82.57
2022-11-18T01:55:12.747Z,82.69
2022-11-18T01:56:12.724Z,82.81
2022-11-18T01:57:12.694Z,82.75
2022-11-18T01:58:12.705Z,82.81
2022-11-18T01:59:12.675Z,82.85
2022-11-18T02:00:12.705Z,82.97
2022-11-18T02:01:12.713Z,83.05
2022-11-18T02:02:12.672Z,83.24
2022-11-18T02:03:12.626Z,83.32
2022-11-18T02:04:12.622Z,83.52
2022-11-18T02:05:12.609Z,83.65
2022-11-18T02:06:12.599Z,83.72
2022-11-18T02:07:12.605Z,83.68
2022-11-18T02:08:12.619Z,83.54
2022-11-18T02:09:12.530Z,83.57
2022-11-18T02:10:12.551Z,83.72
2022-11-18T02:11:12.508Z,83.82
2022-11-18T02:12:12.598Z,83.84
2022-11-18T02:13:12.483Z,83.81
2022-11-18T02:14:12.517Z,83.94
2022-11-18T02:15:12.467Z,84.03
2022-11-18T02:16:12.472Z,84.03
2022-11-18T02:17:12.433Z,83.85
2022-11-18T02:18:12.444Z,83.92
2022-11-18T02:19:12.406Z,84.05
2022-11-18T02:20:12.424Z,84.05
2022-11-18T02:21:12.386Z,84.08
2022-11-18T02:22:12.393Z,84.37
2022-11-18T02:23:12.359Z,84.41
2022-11-18T02:24:12.360Z,84.18
2022-11-18T02:25:12.339Z,83.93
2022-11-18T02:26:12.355Z,83.89
2022-11-18T02:27:12.296Z,84.02
2022-11-18T02:28:12.327Z,84.11
2022-11-18T02:29:12.282Z,84.24
2022-11-18T02:30:12.293Z,84.29
2022-11-18T02:31:12.269Z,84.46
2022-11-18T02:32:12.263Z,84.40
2022-11-18T02:33:12.246Z,84.19
2022-11-18T02:34:12.232Z,84.24
2022-11-18T02:35:12.194Z,84.30
2022-11-18T02:36:12.208Z,84.23
2022-11-18T02:37:12.182Z,84.35
2022-11-18T02:38:12.186Z,84.43
2022-11-18T02:39:12.154Z,84.44
2022-11-18T02:40:12.168Z,84.30
2022-11-18T02:41:12.140Z,83.99
2022-11-18T02:42:12.126Z,83.71
2022-11-18T02:43:12.102Z,83.68
2022-11-18T02:44:12.103Z,83.52
2022-11-18T02:45:12.086Z,83.51
2022-11-18T02:46:12.072Z,83.53
2022-11-18T02:47:12.052Z,83.63
2022-11-18T02:48:12.078Z,83.72
2022-11-18T02:49:12.020Z,83.78
2022-11-18T02:50:12.039Z,83.74
2022-11-18T02:51:12.008Z,83.84
2022-11-18T02:52:12.017Z,83.75
2022-11-18T02:53:11.966Z,83.76
2022-11-18T02:54:11.983Z,83.52
2022-11-18T02:55:11.934Z,83.41
2022-11-18T02:56:11.963Z,83.49
2022-11-18T02:57:11.919Z,83.59
2022-11-18T02:58:11.917Z,83.71
2022-11-18T02:59:11.891Z,83.69
2022-11-18T03:00:11.897Z,83.70
2022-11-18T03:01:11.912Z,83.87
2022-11-18T03:02:11.866Z,83.86
2022-11-18T03:03:11.829Z,83.86
2022-11-18T03:04:11.845Z,83.89
2022-11-18T03:05:11.810Z,83.92
2022-11-18T03:06:11.823Z,83.86
2022-11-18T03:07:11.873Z,84.04
2022-11-18T03:08:11.792Z,84.13
2022-11-18T03:09:11.752Z,84.01
2022-11-18T03:10:11.758Z,84.04
2022-11-18T03:11:11.738Z,83.99
2022-11-18T03:12:11.748Z,84.13
2022-11-18T03:13:11.706Z,84.30
2022-11-18T03:14:11.712Z,83.95
2022-11-18T03:15:11.673Z,83.78
2022-11-18T03:16:11.680Z,83.92
2022-11-18T03:17:11.653Z,83.89
2022-11-18T03:18:11.661Z,83.83
2022-11-18T03:19:11.629Z,83.85
2022-11-18T03:20:11.637Z,83.83
2022-11-18T03:21:11.607Z,83.89
2022-11-18T03:22:11.610Z,84.04
2022-11-18T03:23:11.584Z,83.95
2022-11-18T03:24:11.582Z,84.27
2022-11-18T03:25:11.548Z,84.38
2022-11-18T03:26:11.559Z,84.56
2022-11-18T03:27:11.523Z,84.57
2022-11-18T03:28:11.533Z,84.54
2022-11-18T03:29:11.497Z,84.56
2022-11-18T03:30:11.503Z,84.36
2022-11-18T03:31:11.480Z,84.04
2022-11-18T03:32:11.486Z,84.00
2022-11-18T03:33:11.441Z,84.26
2022-11-18T03:34:11.459Z,84.29
2022-11-18T03:35:11.447Z,84.32
2022-11-18T03:36:11.425Z,84.21
2022-11-18T03:37:11.386Z,84.28
2022-11-18T03:38:11.417Z,84.39
2022-11-18T03:39:11.362Z,84.38
2022-11-18T03:40:11.386Z,84.11
2022-11-18T03:41:11.336Z,84.34
2022-11-18T03:42:11.394Z,84.37
2022-11-18T03:43:11.311Z,84.57
2022-11-18T03:44:11.326Z,84.65
2022-11-18T03:45:11.288Z,84.80
2022-11-18T03:46:11.298Z,84.61
2022-11-18T03:47:11.279Z,84.63
2022-11-18T03:48:11.278Z,84.60
2022-11-18T03:49:11.235Z,84.28
2022-11-18T03:50:11.242Z,84.50
2022-11-18T03:51:11.205Z,84.89
2022-11-18T03:52:11.224Z,84.96
2022-11-18T03:53:11.204Z,85.23
2022-11-18T03:54:11.193Z,85.08
2022-11-18T03:55:11.236Z,85.34
2022-11-18T03:56:16.990Z,85.20
2022-11-18T03:57:11.135Z,85.60
2022-11-18T03:58:11.150Z,85.80
2022-11-18T03:59:11.121Z,86.01
2022-11-18T04:00:11.133Z,86.21
2022-11-18T04:01:11.100Z,86.25
2022-11-18T04:02:11.126Z,86.43
2022-11-18T04:03:11.058Z,86.59
2022-11-18T04:04:11.059Z,86.66
2022-11-18T04:05:11.048Z,86.64
2022-11-18T04:06:11.040Z,86.80
2022-11-18T04:07:11.059Z,86.87
2022-11-18T04:08:11.026Z,87.04
2022-11-18T04:09:10.976Z,87.21
2022-11-18T04:10:10.982Z,87.29
2022-11-18T04:11:10.946Z,87.34
2022-11-18T04:12:19.468Z,87.46
2022-11-18T04:13:10.985Z,87.46
2022-11-18T04:14:10.915Z,87.36
2022-11-18T04:15:10.930Z,87.30
2022-11-18T04:16:10.890Z,87.18
2022-11-18T04:17:10.902Z,87.23
2022-11-18T04:18:10.869Z,87.18
2022-11-18T04:19:10.883Z,87.19
2022-11-18T04:20:10.855Z,87.27
2022-11-18T04:21:10.845Z,87.45
2022-11-18T04:22:10.816Z,87.57
2022-11-18T04:23:10.817Z,87.50
2022-11-18T04:24:10.801Z,87.55
2022-11-18T04:25:10.799Z,87.61
2022-11-18T04:26:10.764Z,87.69
2022-11-18T04:27:10.765Z,87.34
2022-11-18T04:28:10.741Z,87.27
2022-11-18T04:29:10.746Z,87.20
2022-11-18T04:30:10.714Z,87.31
2022-11-18T04:31:10.732Z,87.35
2022-11-18T04:32:10.673Z,87.36
2022-11-18T04:33:10.695Z,87.39
2022-11-18T04:34:10.655Z,87.54
2022-11-18T04:35:10.672Z,87.60
2022-11-18T04:36:10.630Z,87.59
2022-11-18T04:37:10.647Z,87.48
2022-11-18T04:38:10.612Z,87.57
2022-11-18T04:39:10.619Z,87.51
2022-11-18T04:40:10.574Z,87.60
2022-11-18T04:41:10.595Z,87.52
2022-11-18T04:42:10.547Z,87.48
2022-11-18T04:43:10.572Z,87.53
2022-11-18T04:44:10.525Z,87.51
2022-11-18T04:45:10.536Z,87.58
2022-11-18T04:46:10.495Z,87.65
2022-11-18T04:47:10.511Z,87.81
2022-11-18T04:48:10.478Z,87.88
2022-11-18T04:49:10.489Z,87.94
2022-11-18T04:50:10.449Z,87.84
2022-11-18T04:51:10.459Z,87.53
2022-11-18T04:52:10.432Z,87.27
2022-11-18T04:53:10.441Z,87.25
2022-11-18T04:54:10.399Z,87.38
2022-11-18T04:55:10.405Z,87.50
2022-11-18T04:56:10.359Z,87.40
2022-11-18T04:57:10.381Z,87.36
2022-11-18T04:58:10.361Z,87.49
2022-11-18T04:59:10.351Z,87.59
2022-11-18T05:00:10.306Z,87.39
2022-11-18T05:01:10.349Z,87.25
2022-11-18T05:02:10.285Z,87.35
2022-11-18T05:03:10.308Z,87.11
2022-11-18T05:04:10.285Z,87.10
2022-11-18T05:05:10.280Z,86.98
2022-11-18T05:06:10.246Z,87.00
2022-11-18T05:07:10.311Z,87.01
2022-11-18T05:08:10.236Z,87.13
2022-11-18T05:09:10.216Z,87.03
2022-11-18T05:10:10.192Z,87.10
2022-11-18T05:11:10.192Z,87.12
2022-11-18T05:12:10.155Z,86.96
2022-11-18T05:13:10.177Z,86.97
2022-11-18T05:14:10.127Z,86.74
2022-11-18T05:15:10.130Z,86.74
2022-11-18T05:16:10.099Z,86.88
2022-11-18T05:17:10.131Z,86.92
2022-11-18T05:18:10.083Z,86.78
2022-11-18T05:19:10.092Z,86.61
2022-11-18T05:20:10.041Z,86.47
2022-11-18T05:21:10.071Z,86.50
2022-11-18T05:22:10.019Z,86.57
2022-11-18T05:23:10.042Z,86.64
2022-11-18T05:24:10.026Z,86.53
2022-11-18T05:25:10.025Z,85.92
2022-11-18T05:26:09.967Z,85.96
2022-11-18T05:27:09.984Z,85.69
2022-11-18T05:28:09.954Z,85.67
2022-11-18T05:29:09.950Z,85.75
2022-11-18T05:30:09.916Z,85.82
2022-11-18T05:31:09.950Z,85.44
2022-11-18T05:32:09.900Z,85.21
2022-11-18T05:33:09.895Z,85.32
2022-11-18T05:34:09.860Z,85.31
2022-11-18T05:35:09.887Z,85.35
2022-11-18T05:36:09.847Z,85.22
2022-11-18T05:37:09.852Z,85.43
2022-11-18T05:38:09.824Z,84.69
2022-11-18T05:39:09.824Z,84.52
2022-11-18T05:40:09.788Z,84.69
2022-11-18T05:41:09.808Z,84.43
2022-11-18T05:42:09.781Z,84.13
2022-11-18T05:43:09.764Z,84.41
2022-11-18T05:44:09.745Z,84.53
2022-11-18T05:45:09.744Z,84.37
2022-11-18T05:46:09.715Z,84.24
2022-11-18T05:47:09.716Z,84.20
2022-11-18T05:48:09.689Z,84.43
2022-11-18T05:49:09.686Z,84.49
2022-11-18T05:50:09.655Z,84.11
2022-11-18T05:51:09.676Z,83.83
2022-11-18T05:52:09.639Z,84.09
2022-11-18T05:53:09.646Z,82.42
2022-11-18T05:54:09.621Z,82.51
2022-11-18T05:55:09.630Z,83.04
2022-11-18T05:56:09.578Z,83.51
2022-11-18T05:57:09.608Z,83.24
2022-11-18T05:58:09.557Z,83.04
2022-11-18T05:59:09.552Z,83.02
2022-11-18T06:00:09.535Z,83.18
2022-11-18T06:01:09.532Z,83.38
2022-11-18T06:02:09.492Z,83.41
2022-11-18T06:03:09.611Z,82.97
2022-11-18T06:04:09.475Z,83.22
2022-11-18T06:05:09.507Z,83.47
2022-11-18T06:06:09.436Z,83.28
2022-11-18T06:07:09.487Z,83.53
2022-11-18T06:08:09.434Z,83.23
2022-11-18T06:09:09.431Z,83.06
2022-11-18T06:10:09.410Z,82.58
2022-11-18T06:11:09.400Z,82.28
2022-11-18T06:12:09.356Z,82.72
2022-11-18T06:13:09.409Z,82.97
2022-11-18T06:14:09.438Z,83.16
2022-11-18T06:18:01.615Z,82.87
2022-11-18T06:19:02.602Z,83.12
2022-11-18T06:20:02.474Z,83.12
2022-11-18T06:21:02.559Z,82.36
2022-11-18T06:22:02.456Z,82.66
2022-11-18T06:23:02.449Z,82.68
2022-11-18T06:24:02.418Z,82.86
2022-11-18T06:25:02.412Z,83.11
2022-11-18T06:26:02.399Z,83.12
2022-11-18T06:27:02.419Z,82.41
2022-11-18T06:28:02.359Z,81.96
2022-11-18T06:29:02.370Z,82.16
2022-11-18T06:30:02.318Z,82.70
2022-11-18T06:31:02.328Z,82.52
2022-11-18T06:32:02.326Z,82.51
2022-11-18T06:33:02.308Z,82.68
2022-11-18T06:34:02.286Z,82.87
2022-11-18T06:35:02.277Z,83.18
2022-11-18T06:36:02.280Z,83.31
2022-11-18T06:37:02.295Z,83.25
2022-11-18T06:38:02.223Z,82.98
2022-11-18T06:39:02.241Z,83.32
2022-11-18T06:40:02.199Z,83.46
2022-11-18T06:41:02.216Z,83.53
2022-11-18T06:42:02.156Z,83.59
2022-11-18T06:43:02.181Z,83.52
2022-11-18T06:44:02.189Z,83.56
2022-11-18T06:45:02.296Z,83.14
2022-11-18T06:46:07.688Z,83.20
2022-11-18T06:47:02.188Z,83.08
2022-11-18T06:48:02.122Z,82.93
2022-11-18T06:49:02.070Z,83.10
2022-11-18T06:50:02.077Z,83.54
2022-11-18T06:51:02.039Z,83.66
2022-11-18T06:52:02.088Z,83.51
2022-11-18T06:53:02.027Z,83.32
2022-11-18T06:54:06.050Z,83.51
2022-11-18T06:55:01.995Z,83.36
2022-11-18T06:56:02.012Z,83.34
2022-11-18T06:57:01.962Z,83.58
2022-11-18T06:58:01.975Z,83.55
2022-11-18T06:59:01.939Z,83.72
2022-11-18T07:00:02.717Z,83.78
2022-11-18T07:01:01.991Z,84.00
2022-11-18T07:02:01.920Z,84.00
2022-11-18T07:03:01.937Z,83.99
2022-11-18T07:04:01.896Z,83.91
2022-11-18T07:05:01.857Z,83.93
2022-11-18T07:06:01.915Z,83.83
2022-11-18T07:07:01.914Z,83.91
2022-11-18T07:08:01.861Z,83.70
2022-11-18T07:09:01.827Z,83.80
2022-11-18T07:10:01.837Z,83.90
2022-11-18T07:11:01.782Z,83.83
2022-11-18T07:12:01.796Z,83.87
2022-11-18T07:13:01.764Z,84.04
2022-11-18T07:14:01.795Z,83.75
2022-11-18T07:15:01.737Z,83.75
2022-11-18T07:16:01.771Z,83.79
2022-11-18T07:17:01.716Z,83.83
2022-11-18T07:18:01.714Z,83.87
2022-11-18T07:19:01.692Z,83.85
2022-11-18T07:20:01.690Z,83.80
2022-11-18T07:21:01.672Z,83.60
2022-11-18T07:22:01.717Z,83.78
2022-11-18T07:23:01.645Z,83.68
2022-11-18T07:24:01.784Z,83.44
2022-11-18T07:25:01.605Z,83.32
2022-11-18T07:26:01.611Z,83.61
2022-11-18T07:27:01.615Z,83.73
2022-11-18T07:28:01.607Z,83.95
2022-11-18T07:29:01.567Z,83.84
2022-11-18T07:30:01.585Z,83.80
2022-11-18T07:31:01.525Z,83.94
2022-11-18T07:32:01.530Z,84.04
2022-11-18T07:33:01.499Z,83.80
2022-11-18T07:34:01.511Z,83.94
2022-11-18T07:35:01.474Z,83.95
2022-11-18T07:36:01.476Z,83.84
2022-11-18T07:37:01.440Z,83.77
2022-11-18T07:38:01.485Z,83.73
2022-11-18T07:39:01.416Z,83.80
2022-11-18T07:40:01.482Z,84.01
2022-11-18T07:41:01.427Z,84.05
2022-11-18T07:42:01.402Z,84.03
2022-11-18T07:43:01.406Z,83.99
2022-11-18T07:44:01.609Z,84.00
2022-11-18T07:45:01.394Z,84.10
2022-11-18T07:46:01.364Z,84.26
2022-11-18T07:47:01.346Z,84.17
2022-11-18T07:48:01.327Z,84.20
2022-11-18T07:49:01.296Z,84.15
2022-11-18T07:50:01.337Z,84.07
2022-11-18T07:51:01.273Z,83.92
2022-11-18T07:52:01.294Z,83.69
2022-11-18T07:53:01.276Z,83.57
2022-11-18T07:54:01.269Z,83.72
2022-11-18T07:55:01.218Z,83.62
2022-11-18T07:56:01.221Z,83.68
2022-11-18T07:57:01.271Z,83.47
2022-11-18T07:58:01.216Z,83.38
2022-11-18T07:59:01.154Z,83.44
2022-11-18T08:00:01.175Z,83.34
2022-11-18T08:01:01.191Z,83.42
2022-11-18T08:02:01.252Z,83.45
2022-11-18T08:03:01.142Z,83.27
2022-11-18T08:04:01.140Z,83.17
2022-11-18T08:05:01.151Z,83.00
2022-11-18T08:06:01.087Z,82.87
2022-11-18T08:07:01.107Z,82.81
2022-11-18T08:08:01.074Z,82.78
2022-11-18T08:09:01.030Z,82.78
2022-11-18T08:10:01.070Z,82.71
2022-11-18T08:11:01.001Z,82.74
2022-11-18T08:12:01.013Z,82.83
2022-11-18T08:13:00.983Z,82.83
2022-11-18T08:14:00.986Z,82.65
2022-11-18T08:15:00.990Z,82.73
2022-11-18T08:16:00.960Z,82.53
2022-11-18T08:17:00.950Z,82.43
2022-11-18T08:18:00.929Z,82.35
2022-11-18T08:19:01.019Z,82.26
2022-11-18T08:20:00.907Z,82.03
2022-11-18T08:21:00.888Z,82.02
2022-11-18T08:22:00.893Z,82.19
2022-11-18T08:23:00.902Z,82.30
2022-11-18T08:24:00.883Z,82.51
2022-11-18T08:25:00.842Z,82.45
2022-11-18T08:26:00.841Z,82.26
2022-11-18T08:27:00.797Z,82.11
2022-11-18T08:28:00.814Z,82.03
2022-11-18T08:29:00.812Z,81.97
2022-11-18T08:30:00.781Z,82.15
2022-11-18T08:31:00.750Z,82.32
2022-11-18T08:32:00.770Z,82.50
2022-11-18T08:33:00.733Z,82.56
2022-11-18T08:34:00.731Z,82.49
2022-11-18T08:35:00.697Z,82.19
2022-11-18T08:36:00.704Z,82.34
2022-11-18T08:37:00.677Z,82.46
2022-11-18T08:38:00.738Z,82.58
2022-11-18T08:39:00.642Z,82.62
2022-11-18T08:40:00.665Z,82.68
2022-11-18T08:41:00.620Z,82.65
2022-11-18T08:42:00.687Z,82.78
2022-11-18T08:43:00.604Z,82.95
2022-11-18T08:44:00.593Z,83.04
2022-11-18T08:45:00.598Z,83.17
2022-11-18T08:46:00.568Z,83.24
2022-11-18T08:47:00.548Z,83.29
2022-11-18T08:48:00.558Z,83.10
2022-11-18T08:49:00.515Z,83.13
2022-11-18T08:50:00.590Z,83.18
2022-11-18T08:51:00.491Z,83.12
2022-11-18T08:52:00.515Z,83.16
2022-11-18T08:53:00.498Z,83.14
2022-11-18T08:54:00.482Z,83.18
2022-11-18T08:55:00.433Z,83.03
2022-11-18T08:56:00.455Z,83.16
2022-11-18T08:57:00.403Z,83.35
2022-11-18T08:58:00.412Z,83.58
2022-11-18T08:59:00.388Z,83.42
2022-11-18T09:00:00.597Z,83.59
2022-11-18T09:01:00.351Z,83.61
2022-11-18T09:02:00.465Z,83.49
2022-11-18T09:03:00.337Z,83.42
2022-11-18T09:04:00.353Z,83.31
2022-11-18T09:05:00.304Z,83.27
2022-11-18T09:06:00.324Z,83.19
2022-11-18T09:07:00.394Z,83.23
2022-11-18T09:08:00.299Z,83.18
2022-11-18T09:09:05.985Z,83.24
2022-11-18T09:10:00.368Z,83.21
2022-11-18T09:11:00.232Z,83.39
2022-11-18T09:12:00.250Z,83.45
2022-11-18T09:13:18.432Z,83.40
2022-11-18T09:14:53.445Z,83.69
2022-11-18T09:15:16.376Z,84.10
2022-11-18T09:16:00.206Z,84.11
2022-11-18T09:17:00.163Z,84.09
2022-11-18T09:18:00.159Z,84.17
2022-11-18T09:19:13.101Z,83.80
2022-11-18T09:20:00.243Z,83.60
2022-11-18T09:21:00.117Z,83.76
2022-11-18T09:22:00.159Z,83.74
2022-11-18T09:23:00.084Z,83.46
2022-11-18T09:24:00.096Z,83.56
2022-11-18T09:25:00.064Z,83.47
2022-11-18T09:26:00.057Z,83.57
2022-11-18T09:27:00.026Z,83.67
2022-11-18T09:28:00.035Z,83.76
2022-11-18T09:28:59.992Z,83.91
2022-11-18T09:30:00.174Z,84.06
2022-11-18T09:30:59.972Z,84.09
2022-11-18T09:31:59.987Z,84.10
2022-11-18T09:32:59.961Z,84.08
2022-11-18T09:33:59.956Z,84.14
2022-11-18T09:34:59.926Z,84.21
2022-11-18T09:35:59.916Z,84.14
2022-11-18T09:36:59.887Z,84.15
2022-11-18T09:37:59.897Z,84.24
2022-11-18T09:38:59.882Z,84.17
2022-11-18T09:39:59.952Z,84.19
2022-11-18T09:40:59.837Z,84.05
2022-11-18T09:41:59.885Z,83.94
2022-11-18T09:42:59.818Z,83.92
2022-11-18T09:43:59.822Z,83.99
2022-11-18T09:44:59.787Z,84.11
2022-11-18T09:45:59.832Z,84.26
2022-11-18T09:46:59.773Z,84.34
2022-11-18T09:47:59.798Z,84.50
2022-11-18T09:48:59.766Z,84.45
2022-11-18T09:49:59.830Z,84.56
2022-11-18T09:50:59.712Z,84.58
2022-11-18T09:51:59.742Z,84.54
2022-11-18T09:52:59.724Z,84.68
2022-11-18T09:53:59.720Z,84.80
2022-11-18T09:54:59.668Z,84.86
2022-11-18T09:55:59.746Z,85.02
2022-11-18T09:56:59.695Z,85.23
2022-11-18T09:57:59.654Z,85.36
2022-11-18T09:58:59.635Z,85.49
2022-11-18T09:59:59.659Z,85.50
2022-11-18T10:00:59.576Z,85.32
2022-11-18T10:01:59.680Z,85.22
2022-11-18T10:02:59.582Z,84.96
2022-11-18T10:03:59.578Z,84.89
2022-11-18T10:04:59.529Z,84.80
2022-11-18T10:05:59.583Z,84.69
2022-11-18T10:06:59.547Z,84.73
2022-11-18T10:07:59.513Z,84.71
2022-11-18T10:08:59.504Z,84.62
2022-11-18T10:09:59.517Z,84.57
2022-11-18T10:11:00.351Z,84.66
2022-11-18T10:11:59.469Z,84.66
2022-11-18T10:12:59.612Z,84.52
2022-11-18T10:13:59.458Z,84.66
2022-11-18T10:14:59.544Z,84.91
2022-11-18T10:15:59.490Z,85.04
2022-11-18T10:16:59.593Z,85.11
2022-11-18T10:17:59.550Z,85.04
2022-11-18T10:20:15.243Z,84.76
2022-11-18T10:21:16.231Z,84.99
2022-11-18T10:22:22.655Z,85.14
2022-11-18T10:23:16.203Z,85.05
2022-11-18T10:24:16.661Z,84.88
2022-11-18T10:25:16.172Z,84.76
2022-11-18T10:26:23.885Z,84.86
2022-11-18T10:27:16.248Z,85.02
2022-11-18T10:28:16.111Z,85.17
2022-11-18T10:29:16.087Z,85.10
2022-11-18T10:30:16.267Z,85.08
2022-11-18T10:31:15.982Z,85.06
2022-11-18T10:32:16.009Z,85.10
2022-11-18T10:33:16.083Z,85.20
2022-11-18T10:34:16.508Z,85.20
2022-11-18T10:35:15.948Z,85.25
2022-11-18T10:36:15.973Z,85.41
2022-11-18T10:37:15.894Z,85.53
2022-11-18T10:38:17.547Z,85.56
2022-11-18T10:39:15.883Z,85.62
2022-11-18T10:40:15.900Z,85.66
2022-11-18T10:41:15.837Z,85.71
2022-11-18T10:42:15.884Z,85.57
2022-11-18T10:43:15.827Z,85.44
2022-11-18T10:44:16.294Z,85.30
2022-11-18T10:45:15.842Z,85.37
2022-11-18T10:46:15.800Z,85.43
2022-11-18T10:47:15.827Z,85.50
2022-11-18T10:48:15.812Z,85.44
2022-11-18T10:49:15.768Z,85.22
2022-11-18T10:50:15.871Z,85.33
2022-11-18T10:51:15.807Z,85.37
2022-11-18T10:52:15.801Z,85.36
2022-11-18T10:53:15.794Z,85.31
2022-11-18T10:54:16.218Z,85.16
2022-11-18T10:55:15.687Z,85.20
2022-11-18T10:56:15.706Z,85.29
2022-11-18T10:57:15.627Z,85.45
2022-11-18T10:58:15.777Z,85.58
2022-11-18T10:59:15.728Z,85.65
2022-11-18T11:00:15.591Z,85.73
2022-11-18T11:01:15.665Z,85.72
2022-11-18T11:02:15.583Z,85.55
2022-11-18T11:03:15.571Z,85.42
2022-11-18T11:04:15.895Z,85.53
2022-11-18T11:05:15.575Z,85.61
2022-11-18T11:06:15.635Z,85.53
2022-11-18T11:07:15.574Z,85.67
2022-11-18T11:08:35.910Z,85.81
2022-11-18T11:09:15.534Z,85.97
2022-11-18T11:10:15.466Z,86.13
2022-11-18T11:11:15.491Z,86.05
2022-11-18T11:12:15.447Z,85.63
2022-11-18T11:13:15.438Z,85.62
2022-11-18T11:14:15.719Z,85.87
2022-11-18T11:15:15.418Z,85.99
2022-11-18T11:16:15.423Z,86.15
2022-11-18T11:17:15.541Z,86.38
2022-11-18T11:18:15.368Z,86.43
2022-11-18T11:19:15.419Z,86.24
2022-11-18T11:20:15.349Z,86.23
2022-11-18T11:21:15.360Z,85.97
2022-11-18T11:22:15.312Z,86.20
2022-11-18T11:23:19.117Z,86.22
2022-11-18T11:24:15.607Z,86.29
2022-11-18T11:25:15.339Z,86.51
2022-11-18T11:28:16.097Z,86.50
2022-11-18T11:29:16.541Z,86.46
2022-11-18T11:30:15.232Z,86.57
2022-11-18T11:31:15.220Z,86.53
2022-11-18T11:32:15.181Z,86.44
2022-11-18T11:33:15.196Z,86.44
2022-11-18T11:34:15.162Z,86.12
2022-11-18T11:35:15.143Z,86.11
2022-11-18T11:36:15.143Z,86.02
2022-11-18T11:37:15.139Z,86.11
2022-11-18T11:38:15.088Z,86.27
2022-11-18T11:39:15.147Z,86.27
2022-11-18T11:40:15.071Z,86.43
2022-11-18T11:41:15.066Z,86.39
2022-11-18T11:42:15.053Z,86.37
2022-11-18T11:43:15.027Z,86.54
2022-11-18T11:44:15.034Z,86.63
2022-11-18T11:45:15.006Z,86.72
2022-11-18T11:46:14.992Z,86.61
2022-11-18T11:47:14.981Z,86.57
2022-11-18T11:48:14.994Z,86.57
2022-11-18T11:49:15.334Z,86.55
2022-11-18T11:50:15.037Z,86.58
2022-11-18T11:51:14.934Z,86.74
2022-11-18T11:52:14.929Z,86.81
2022-11-18T11:53:14.927Z,86.82
2022-11-18T11:54:14.947Z,86.90
2022-11-18T11:55:14.877Z,86.89
2022-11-18T11:56:19.652Z,87.00
2022-11-18T11:57:14.868Z,87.06
2022-11-18T11:58:14.828Z,87.11
2022-11-18T11:59:14.843Z,87.24
2022-11-18T12:00:14.817Z,87.31
2022-11-18T12:01:14.809Z,87.30
2022-11-18T12:02:14.811Z,87.32
2022-11-18T12:03:14.872Z,87.44
2022-11-18T12:04:14.779Z,87.48
2022-11-18T12:05:14.759Z,87.58
2022-11-18T12:06:14.859Z,87.57
2022-11-18T12:07:14.793Z,87.47
2022-11-18T12:08:14.724Z,87.45
2022-11-18T12:09:14.756Z,87.53
2022-11-18T12:10:14.680Z,87.50
2022-11-18T12:11:14.695Z,87.50
2022-11-18T12:12:14.698Z,87.56
2022-11-18T12:13:14.676Z,87.60
2022-11-18T12:14:14.661Z,87.70
2022-11-18T12:15:14.623Z,87.78
2022-11-18T12:16:14.656Z,87.77
2022-11-18T12:17:14.635Z,87.83
2022-11-18T12:18:14.608Z,87.84
2022-11-18T12:19:14.584Z,87.86
2022-11-18T12:20:14.580Z,87.74
2022-11-18T12:21:14.580Z,87.40
2022-11-18T12:22:14.574Z,87.25
2022-11-18T12:23:14.534Z,87.22
2022-11-18T12:24:14.508Z,87.10
2022-11-18T12:25:14.532Z,86.97
2022-11-18T12:26:14.508Z,86.80
2022-11-18T12:27:14.471Z,87.01
2022-11-18T12:28:14.460Z,86.95
2022-11-18T12:29:14.438Z,86.90
2022-11-18T12:30:14.446Z,86.77
2022-11-18T12:31:14.435Z,86.65
2022-11-18T12:32:14.425Z,86.44
2022-11-18T12:33:14.392Z,86.38
2022-11-18T12:34:14.392Z,86.44
2022-11-18T12:35:14.396Z,86.65
2022-11-18T12:36:14.370Z,86.40
2022-11-18T12:37:14.345Z,86.00
2022-11-18T12:38:14.388Z,85.98
2022-11-18T12:39:14.346Z,86.16
2022-11-18T12:40:14.310Z,86.00
2022-11-18T12:41:14.330Z,86.05
2022-11-18T12:42:14.290Z,86.24
2022-11-18T12:43:14.278Z,86.33
2022-11-18T12:44:14.258Z,86.23
2022-11-18T12:45:14.249Z,86.39
2022-11-18T12:46:14.317Z,86.26
2022-11-18T12:47:14.236Z,86.29
2022-11-18T12:48:14.194Z,86.24
2022-11-18T12:49:14.217Z,86.04
2022-11-18T12:50:14.185Z,85.92
2022-11-18T12:51:14.266Z,85.80
2022-11-18T12:52:14.183Z,85.91
2022-11-18T12:53:14.178Z,86.07
2022-11-18T12:54:14.135Z,86.18
2022-11-18T12:55:14.172Z,86.19
2022-11-18T12:56:14.116Z,86.21
2022-11-18T12:57:14.116Z,86.24
2022-11-18T12:58:14.284Z,86.38